Time;durP1;ratioP1;P1;durP2;ratioP2;P2;SDS_P1;SDS_P2;PMS_P1;PMS_P2;Temp;Humidity;BMP_temperature;BMP_pressure;BME280_temperature;BME280_humidity;BME280_pressure;Samples;Min_cycle;Max_cycle;Signal;HPM_P1;HPM_P2
2023/03/27 00:00:00;;;;;;;;;3.00;3.00;;;;;11.96;49.87;101127.94;2104752;27;46178;-62
2023/03/27 00:01:00;;;;;;;;;2.50;2.50;;;;;11.96;49.82;101127.06;2090027;28;46262;-63
2023/03/27 00:02:01;;;;;;;;;2.33;2.00;;;;;11.95;49.73;101126.19;2077947;28;46264;-60
2023/03/27 00:03:01;;;;;;;;;2.00;2.00;;;;;11.97;49.56;101135.00;2083898;28;47029;-63
2023/03/27 00:04:02;;;;;;;;;2.25;2.25;;;;;11.96;49.87;101141.25;2092088;28;47050;-62
2023/03/27 00:05:02;;;;;;;;;2.00;2.00;;;;;11.97;49.80;101144.78;2087172;28;46584;-61
2023/03/27 00:06:05;;;;;;;;;2.00;2.00;;;;;11.97;49.65;101137.69;2086681;28;46716;-63
2023/03/27 00:07:06;;;;;;;;;1.00;1.00;;;;;11.97;49.39;101144.78;2087018;28;46894;-61
2023/03/27 00:08:09;;;;;;;;;3.00;3.00;;;;;11.95;49.25;101149.25;2086536;28;46885;-60
2023/03/27 00:09:10;;;;;;;;;2.75;2.75;;;;;11.96;49.29;101145.69;2087163;28;46973;-61
2023/03/27 00:10:11;;;;;;;;;5.00;3.25;;;;;11.94;48.92;101152.78;2086660;28;46145;-62
2023/03/27 00:11:12;;;;;;;;;1.33;1.33;;;;;11.92;49.39;101166.13;2086510;28;46272;-60
2023/03/27 00:12:12;;;;;;;;;2.00;2.00;;;;;11.91;49.45;101164.38;2087588;28;46263;-61
2023/03/27 00:13:13;;;;;;;;;2.33;2.33;;;;;11.90;49.32;101173.25;2091892;28;46371;-61
2023/03/27 00:14:14;;;;;;;;;3.33;2.33;;;;;11.90;49.02;101173.25;2086792;28;46316;-60
2023/03/27 00:15:16;;;;;;;;;2.50;2.50;;;;;11.90;49.14;101175.06;2086806;28;46626;-61
2023/03/27 00:16:22;;;;;;;;;2.25;2.00;;;;;11.88;49.14;101183.06;2086636;28;46549;-61
2023/03/27 00:17:23;;;;;;;;;3.00;3.00;;;;;11.89;49.26;101190.13;2086933;28;46498;-62
2023/03/27 00:18:25;;;;;;;;;1.80;1.40;;;;;11.91;49.26;101184.78;2078621;28;46647;-61
2023/03/27 00:19:25;;;;;;;;;3.25;2.50;;;;;11.90;49.11;101191.88;2079380;28;45839;-61
2023/03/27 00:20:26;;;;;;;;;2.00;2.00;;;;;11.91;49.03;101195.41;2086612;28;46367;-63
2023/03/27 00:21:27;;;;;;;;;2.00;2.00;;;;;11.89;48.69;101198.09;2086886;28;46170;-61
2023/03/27 00:22:28;;;;;;;;;3.50;2.75;;;;;11.89;48.42;101207.88;2086433;28;46275;-63
2023/03/27 00:23:30;;;;;;;;;2.75;2.75;;;;;11.83;48.57;101200.91;2086489;28;46694;-63
2023/03/27 00:24:31;;;;;;;;;1.25;1.25;;;;;11.82;48.68;101215.09;2086962;28;47174;-61
2023/03/27 00:25:32;;;;;;;;;1.67;1.67;;;;;11.81;49.07;101210.66;2086754;28;46458;-62
2023/03/27 00:26:32;;;;;;;;;1.50;0.50;;;;;11.79;48.78;101207.16;2086656;28;46631;-62
2023/03/27 00:27:33;;;;;;;;;2.33;2.00;;;;;11.79;48.94;101215.13;2086720;28;46343;-64
2023/03/27 00:28:34;;;;;;;;;3.00;2.00;;;;;11.79;48.87;101215.13;2086503;28;46747;-63
2023/03/27 00:29:34;;;;;;;;;1.00;1.00;;;;;11.78;48.96;101227.53;2086745;28;46801;-62
2023/03/27 00:30:36;;;;;;;;;1.00;1.00;;;;;11.78;48.93;101218.69;2086828;28;46641;-62
2023/03/27 00:31:36;;;;;;;;;2.75;2.00;;;;;11.77;48.63;101219.59;2086974;28;46591;-62
2023/03/27 00:32:36;;;;;;;;;1.00;1.00;;;;;11.74;48.76;101230.28;2093600;28;46678;-61
2023/03/27 00:33:37;;;;;;;;;1.00;1.00;;;;;11.74;48.85;101224.97;2104595;27;45678;-63
2023/03/27 00:34:37;;;;;;;;;1.00;1.00;;;;;11.72;48.76;101225.00;2104701;28;46762;-64
2023/03/27 00:35:38;;;;;;;;;2.67;2.00;;;;;11.72;48.88;101234.75;2104334;28;46603;-62
2023/03/27 00:36:38;;;;;;;;;3.00;2.00;;;;;11.70;48.60;101236.56;2104406;28;46159;-62
2023/03/27 00:37:39;;;;;;;;;1.00;1.00;;;;;11.68;48.80;101236.56;2104841;27;46239;-63
2023/03/27 00:38:40;;;;;;;;;1.25;1.00;;;;;11.68;48.89;101238.34;2102253;28;46912;-62
2023/03/27 00:39:41;;;;;;;;;3.00;3.00;;;;;11.68;48.84;101246.31;2104327;28;46758;-61
2023/03/27 00:40:43;;;;;;;;;2.75;2.00;;;;;11.70;48.74;101241.88;2103528;28;46988;-61
2023/03/27 00:41:44;;;;;;;;;2.00;2.00;;;;;11.69;48.84;101249.00;2104565;28;45837;-61
2023/03/27 00:42:47;;;;;;;;;1.00;1.00;;;;;11.70;48.56;101244.53;2095695;28;46439;-61
2023/03/27 00:43:51;;;;;;;;;1.00;1.00;;;;;11.68;48.98;101252.53;2095387;28;46563;-61
2023/03/27 00:44:52;;;;;;;;;3.00;1.25;;;;;11.67;48.73;101252.56;2104771;28;46267;-62
2023/03/27 00:46:07;;;;;;;;;0.75;0.75;;;;;11.65;48.85;101251.72;2104211;28;46392;-61
2023/03/27 00:47:11;;;;;;;;;2.25;2.00;;;;;11.62;48.78;101260.63;2104590;28;46234;-62
2023/03/27 00:48:12;;;;;;;;;2.25;2.25;;;;;11.63;48.88;101261.50;2104037;28;46548;-62
2023/03/27 00:49:14;;;;;;;;;1.33;1.33;;;;;11.61;48.67;101266.84;2104487;28;46663;-62
2023/03/27 00:50:18;;;;;;;;;1.25;1.00;;;;;11.60;48.72;101257.13;2104323;28;46848;-61
2023/03/27 00:51:23;;;;;;;;;1.00;1.00;;;;;11.58;48.80;101258.06;2104073;28;46404;-62
2023/03/27 00:52:28;;;;;;;;;1.25;1.25;;;;;11.56;49.02;101257.16;2104390;28;46908;-63
2023/03/27 00:53:29;;;;;;;;;1.00;1.00;;;;;11.55;48.87;101263.41;2104424;28;46589;-62
2023/03/27 00:54:33;;;;;;;;;0.67;0.67;;;;;11.56;48.65;101265.16;2104226;28;45377;-61
2023/03/27 00:55:37;;;;;;;;;1.75;1.25;;;;;11.54;48.72;101266.97;2104478;27;46527;-62
2023/03/27 00:56:38;;;;;;;;;3.00;1.00;;;;;11.55;48.71;101263.41;2104346;28;46832;-62
2023/03/27 00:57:40;;;;;;;;;1.00;1.00;;;;;11.55;48.81;101266.94;2107004;27;46888;-62
2023/03/27 00:58:45;;;;;;;;;3.50;1.00;;;;;11.55;48.62;101268.72;2098626;27;46312;-62
2023/03/27 00:59:49;;;;;;;;;1.75;1.75;;;;;11.56;48.46;101273.13;2106915;27;46151;-63
2023/03/27 01:00:52;;;;;;;;;5.00;2.00;;;;;11.56;48.38;101278.44;2095632;28;46732;-63
2023/03/27 01:01:53;;;;;;;;;2.75;1.00;;;;;11.54;48.55;101270.50;2095874;27;46900;-62
2023/03/27 01:02:54;;;;;;;;;0.67;0.67;;;;;11.53;48.49;101275.84;2100198;27;46222;-63
2023/03/27 01:03:59;;;;;;;;;1.67;1.67;;;;;11.52;48.78;101272.31;2105608;27;46063;-62
2023/03/27 01:05:00;;;;;;;;;4.00;1.00;;;;;11.50;48.66;101277.66;2095331;28;46865;-62
2023/03/27 01:06:02;;;;;;;;;1.00;1.00;;;;;11.49;48.57;101283.88;2098337;28;46730;-61
2023/03/27 01:07:05;;;;;;;;;2.75;1.25;;;;;11.48;48.17;101289.22;2103369;28;46328;-62
2023/03/27 01:08:06;;;;;;;;;2.00;1.25;;;;;11.46;48.62;101285.72;2097883;27;46898;-63
2023/03/27 01:09:08;;;;;;;;;1.00;1.00;;;;;11.44;48.78;101291.06;2103334;28;46544;-62
2023/03/27 01:10:09;;;;;;;;;3.00;2.80;;;;;11.42;48.44;101300.81;2104523;27;46766;-63
2023/03/27 01:11:38;;;;;;;;;2.80;2.00;;;;;11.39;48.44;101297.31;2078072;28;46367;-64
2023/03/27 01:12:45;;;;;;;;;2.00;2.00;;;;;11.37;48.67;101297.34;2095437;27;46714;-62
2023/03/27 01:13:54;;;;;;;;;2.20;1.00;;;;;11.37;48.81;101299.13;2102952;27;46965;-63
2023/03/27 01:15:11;;;;;;;;;4.00;3.20;;;;;11.35;48.66;101292.97;2101626;28;47085;-64
2023/03/27 01:16:30;;;;;;;;;2.20;2.20;;;;;11.34;48.84;101301.84;2097289;28;46966;-62
2023/03/27 01:17:39;;;;;;;;;1.00;1.00;;;;;11.36;48.68;101297.38;2097081;28;46340;-62
2023/03/27 01:19:05;;;;;;;;;1.20;0.80;;;;;11.35;48.83;101300.94;2100013;28;46813;-63
2023/03/27 01:20:24;;;;;;;;;1.60;1.60;;;;;11.33;48.84;101305.41;2105694;28;46937;-62
2023/03/27 01:21:56;;;;;;;;;2.00;2.00;;;;;11.30;48.73;101308.97;2105672;28;45885;-62
2023/03/27 01:23:16;;;;;;;;;3.80;1.00;;;;;11.29;48.81;101315.19;2097380;28;45528;-63
2023/03/27 01:24:45;;;;;;;;;1.25;1.00;;;;;11.27;48.81;101317.00;2097895;28;46896;-63
2023/03/27 01:26:04;;;;;;;;;2.00;1.80;;;;;11.26;48.88;101328.53;2101010;28;46794;-63
2023/03/27 01:27:20;;;;;;;;;1.00;1.00;;;;;11.25;48.64;101326.78;2108131;27;47116;-61
2023/03/27 01:28:50;;;;;;;;;2.00;2.00;;;;;11.25;49.05;101332.09;2088162;28;46894;-62
2023/03/27 01:30:10;;;;;;;;;0.75;0.50;;;;;11.24;48.96;101326.78;2100581;28;46709;-62
2023/03/27 01:31:16;;;;;;;;;1.25;0.50;;;;;11.23;49.04;101325.03;2105914;28;46783;-63
2023/03/27 01:32:41;;;;;;;;;1.20;1.00;;;;;11.20;49.18;101320.66;2099953;28;46200;-62
2023/03/27 01:34:06;;;;;;;;;0.50;0.50;;;;;11.19;49.14;101333.06;2106335;28;46625;-61
2023/03/27 01:35:25;;;;;;;;;1.75;0.75;;;;;11.18;49.09;101325.13;2097252;28;46371;-61
2023/03/27 01:36:56;;;;;;;;;3.00;1.75;;;;;11.16;49.08;101326.91;2097124;28;46422;-62
2023/03/27 01:38:19;;;;;;;;;1.00;1.00;;;;;11.16;49.33;101337.53;2096998;28;47026;-63
2023/03/27 01:39:47;;;;;;;;;4.00;3.40;;;;;11.14;49.31;101331.34;2060980;28;46512;-61
2023/03/27 01:41:00;;;;;;;;;0.60;0.60;;;;;11.13;49.27;101340.22;2063623;28;46542;-63
2023/03/27 01:42:15;;;;;;;;;0.40;0.00;;;;;11.11;49.32;101337.59;2063204;28;46395;-62
2023/03/27 01:43:34;;;;;;;;;0.00;0.00;;;;;11.10;49.39;101334.97;2062993;28;46447;-62
2023/03/27 01:44:46;;;;;;;;;2.00;1.00;;;;;11.10;49.44;101334.97;2055040;28;46590;-61
2023/03/27 01:46:15;;;;;;;;;1.00;1.00;;;;;11.09;49.39;101333.22;2060637;28;46787;-64
2023/03/27 01:47:35;;;;;;;;;1.75;1.00;;;;;11.09;49.75;101336.75;2022599;29;46385;-62
2023/03/27 01:48:48;;;;;;;;;1.80;1.00;;;;;11.09;49.36;101341.19;2024384;29;46616;-62
2023/03/27 01:49:55;;;;;;;;;2.00;1.75;;;;;11.08;49.69;101350.06;2029517;29;47219;-62
2023/03/27 01:51:24;;;;;;;;;1.25;1.25;;;;;11.10;49.63;101348.25;2022840;29;46434;-62
2023/03/27 01:52:30;;;;;;;;;1.25;1.25;;;;;11.09;49.37;101343.84;2015236;29;46889;-63
2023/03/27 01:53:48;;;;;;;;;2.25;2.25;;;;;11.09;49.53;101346.50;2016247;29;46324;-63
2023/03/27 01:54:57;;;;;;;;;1.75;1.75;;;;;11.08;49.63;101350.06;2008024;29;46781;-61
2023/03/27 01:56:09;;;;;;;;;1.00;0.75;;;;;11.10;49.79;101353.56;2013051;29;46572;-60
2023/03/27 01:57:24;;;;;;;;;1.75;1.75;;;;;11.09;49.70;101349.16;2015565;29;47803;-63
2023/03/27 01:59:02;;;;;;;;;2.00;2.00;;;;;11.11;49.73;101360.63;2015313;29;46900;-62
2023/03/27 02:00:16;;;;;;;;;1.00;1.00;;;;;11.10;50.04;101357.09;2000296;29;46481;-64
2023/03/27 02:01:26;;;;;;;;;1.00;1.00;;;;;11.09;49.95;101363.31;1992475;29;47152;-63
2023/03/27 02:02:29;;;;;;;;;1.50;1.50;;;;;11.08;49.93;101353.59;1998425;29;46641;-63
2023/03/27 02:03:35;;;;;;;;;1.50;1.50;;;;;11.09;49.92;101362.44;2005774;29;46387;-62
2023/03/27 02:04:47;;;;;;;;;1.75;1.75;;;;;11.09;50.12;101357.13;2000123;29;46517;-64
2023/03/27 02:05:57;;;;;;;;;2.40;2.40;;;;;11.09;49.97;101363.31;2000001;29;46957;-61
2023/03/27 02:07:03;;;;;;;;;2.50;1.00;;;;;11.09;50.00;101357.13;1998591;29;46902;-62
2023/03/27 02:08:14;;;;;;;;;1.00;1.00;;;;;11.09;50.00;101363.31;2000564;29;46169;-62
2023/03/27 02:09:20;;;;;;;;;2.00;1.00;;;;;11.07;50.05;101364.22;2000071;29;46476;-63
2023/03/27 02:10:26;;;;;;;;;3.00;1.00;;;;;11.06;50.23;101366.00;1999677;29;45771;-63
2023/03/27 02:11:31;;;;;;;;;1.75;1.75;;;;;11.05;50.36;101366.91;1999746;29;46235;-63
2023/03/27 02:12:36;;;;;;;;;3.75;1.75;;;;;11.06;50.30;101373.09;2002566;29;46674;-63
2023/03/27 02:13:42;;;;;;;;;2.25;2.00;;;;;11.05;50.20;101372.22;2001323;29;46667;-64
2023/03/27 02:14:51;;;;;;;;;3.50;2.00;;;;;11.06;50.51;101375.75;2000235;29;45801;-63
2023/03/27 02:15:55;;;;;;;;;2.75;2.75;;;;;11.07;50.57;101372.19;1999963;29;46631;-62
2023/03/27 02:17:06;;;;;;;;;1.50;1.50;;;;;11.07;50.64;101369.53;2007436;29;46731;-62
2023/03/27 02:18:11;;;;;;;;;1.25;1.25;;;;;11.06;50.61;101373.09;2030969;28;46830;-63
2023/03/27 02:19:34;;;;;;;;;2.75;2.00;;;;;11.06;50.64;101373.09;2038883;28;46926;-63
2023/03/27 02:20:37;;;;;;;;;2.00;1.00;;;;;11.05;50.73;101377.53;2031170;29;46278;-62
2023/03/27 02:21:37;;;;;;;;;2.00;1.50;;;;;11.06;50.61;101378.41;2031006;28;46448;-62
2023/03/27 02:22:38;;;;;;;;;2.00;1.00;;;;;11.06;50.69;101373.97;2029094;29;46981;-62
2023/03/27 02:23:39;;;;;;;;;1.50;1.50;;;;;11.07;50.58;101386.34;2021718;29;46879;-63
2023/03/27 02:24:42;;;;;;;;;2.00;2.00;;;;;11.08;50.78;101380.16;2035378;28;45421;-63
2023/03/27 02:25:44;;;;;;;;;2.75;2.75;;;;;11.08;50.79;101387.25;2054485;28;46462;-64
2023/03/27 02:26:51;;;;;;;;;2.00;2.00;;;;;11.09;50.76;101383.69;2047446;28;45617;-63
2023/03/27 02:28:35;;;;;;;;;1.25;1.25;;;;;11.10;50.84;101386.31;2050733;28;46358;-62
2023/03/27 02:29:47;;;;;;;;;0.25;0.25;;;;;11.11;51.08;101381.88;2031249;28;46801;-61
2023/03/27 02:31:08;;;;;;;;;1.75;1.75;;;;;11.11;50.83;101390.72;2038770;28;47226;-61
2023/03/27 02:32:31;;;;;;;;;2.50;2.00;;;;;11.13;50.99;101390.69;2039066;28;45877;-62
2023/03/27 02:33:50;;;;;;;;;1.75;1.75;;;;;11.13;50.69;101391.56;2030794;29;46842;-61
2023/03/27 02:35:19;;;;;;;;;2.00;2.00;;;;;11.15;50.62;101394.22;2038034;28;47138;-62
2023/03/27 02:36:31;;;;;;;;;1.00;1.00;;;;;11.15;50.92;101399.53;2053037;28;46376;-62
2023/03/27 02:37:38;;;;;;;;;1.00;1.00;;;;;11.14;51.03;101396.00;2074221;28;46633;-62
2023/03/27 02:38:46;;;;;;;;;1.50;1.50;;;;;11.16;50.80;101401.28;2070751;28;46432;-62
2023/03/27 02:40:04;;;;;;;;;0.00;0.00;;;;;11.17;50.85;101408.34;2068468;28;46396;-61
2023/03/27 02:41:19;;;;;;;;;2.00;2.00;;;;;11.18;50.95;101404.81;2067730;28;46522;-61
2023/03/27 02:42:24;;;;;;;;;1.50;0.00;;;;;11.17;50.92;101409.22;2071088;28;45687;-61
2023/03/27 02:43:43;;;;;;;;;1.00;1.00;;;;;11.15;50.94;101411.03;2071161;28;46726;-61
2023/03/27 02:44:51;;;;;;;;;4.25;1.75;;;;;11.14;51.06;101409.28;2062648;28;46507;-62
2023/03/27 02:46:03;;;;;;;;;1.00;1.00;;;;;11.13;50.73;101414.59;2066042;28;46361;-61
2023/03/27 02:47:27;;;;;;;;;0.00;0.00;;;;;11.13;50.78;101415.47;2070609;28;46672;-60
2023/03/27 02:48:35;;;;;;;;;2.00;1.00;;;;;11.12;50.94;101411.06;2063519;28;46862;-62
2023/03/27 02:49:41;;;;;;;;;2.00;2.00;;;;;11.12;51.04;101410.19;2069328;28;46565;-61
2023/03/27 02:51:07;;;;;;;;;1.75;1.75;;;;;11.12;50.98;101407.53;2070531;28;46070;-61
2023/03/27 02:52:40;;;;;;;;;2.25;1.25;;;;;11.12;51.02;101415.50;2071132;28;45979;-61
2023/03/27 02:53:46;;;;;;;;;1.75;1.00;;;;;11.12;50.93;101415.50;2070762;28;46955;-63
2023/03/27 02:54:54;;;;;;;;;2.25;1.25;;;;;11.11;50.83;101416.41;2070929;28;46671;-61
2023/03/27 02:55:58;;;;;;;;;1.00;1.00;;;;;11.10;50.85;101412.88;2062780;28;47311;-63
2023/03/27 02:57:08;;;;;;;;;1.25;1.25;;;;;11.10;51.07;101420.84;2059526;28;46730;-61
2023/03/27 02:58:15;;;;;;;;;2.75;1.75;;;;;11.09;50.95;101420.88;2071332;28;46461;-62
2023/03/27 02:59:23;;;;;;;;;1.50;1.00;;;;;11.09;51.21;101415.56;2071308;28;46133;-62
2023/03/27 03:00:28;;;;;;;;;2.75;2.75;;;;;11.09;51.04;101418.22;2072234;28;46892;-61
2023/03/27 03:01:31;;;;;;;;;0.75;0.75;;;;;11.06;51.19;101419.13;2070907;28;46342;-60
2023/03/27 03:02:33;;;;;;;;;1.00;0.25;;;;;11.06;51.08;101431.53;2070553;28;46828;-62
2023/03/27 03:03:40;;;;;;;;;2.40;1.00;;;;;11.03;50.99;101427.13;2071255;28;46547;-62
2023/03/27 03:04:55;;;;;;;;;1.00;1.00;;;;;11.03;51.10;101423.59;2070996;28;46373;-61
2023/03/27 03:05:56;;;;;;;;;2.50;1.00;;;;;11.04;51.34;101418.25;2070796;28;46394;-60
2023/03/27 03:06:57;;;;;;;;;0.75;0.75;;;;;11.04;51.15;101423.56;2084342;28;46895;-61
2023/03/27 03:07:58;;;;;;;;;1.75;1.75;;;;;11.05;51.06;101424.44;2096131;28;45067;-61
2023/03/27 03:09:04;;;;;;;;;3.00;1.25;;;;;11.05;50.86;101435.06;2086772;28;46157;-62
2023/03/27 03:10:07;;;;;;;;;2.25;1.25;;;;;11.02;51.03;101435.09;2088363;28;46627;-62
2023/03/27 03:11:10;;;;;;;;;1.50;1.50;;;;;10.99;51.05;101430.72;2105116;28;46616;-60
2023/03/27 03:12:11;;;;;;;;;2.00;2.00;;;;;11.00;51.18;101437.78;2100520;27;47046;-62
2023/03/27 03:13:11;;;;;;;;;1.00;1.00;;;;;10.98;51.09;101436.94;2110195;27;46893;-61
2023/03/27 03:14:12;;;;;;;;;1.00;1.00;;;;;10.98;51.18;101433.41;2096146;28;46459;-61
2023/03/27 03:15:12;;;;;;;;;2.00;2.00;;;;;10.97;50.94;101434.28;2095894;28;46741;-61
2023/03/27 03:16:12;;;;;;;;;2.67;1.67;;;;;10.95;51.23;101436.09;2104951;28;46468;-61
2023/03/27 03:17:14;;;;;;;;;2.00;2.00;;;;;10.94;51.35;101439.66;2100345;28;46666;-61
2023/03/27 03:18:14;;;;;;;;;1.00;1.00;;;;;10.94;51.07;101448.50;2096496;28;46933;-61
2023/03/27 03:19:14;;;;;;;;;1.00;1.00;;;;;10.94;51.35;101444.97;2096271;28;46560;-62
2023/03/27 03:20:15;;;;;;;;;1.33;1.33;;;;;10.94;51.18;101442.31;2096497;28;46103;-61
2023/03/27 03:21:16;;;;;;;;;1.33;1.33;;;;;10.93;51.26;101438.78;2096813;28;46790;-65
2023/03/27 03:22:16;;;;;;;;;2.67;1.67;;;;;10.91;51.26;101443.19;2096125;28;46195;-61
2023/03/27 03:23:17;;;;;;;;;0.00;0.00;;;;;10.89;51.19;101443.22;2096773;28;46611;-62
2023/03/27 03:24:18;;;;;;;;;4.00;2.00;;;;;10.87;51.56;101447.66;2096349;28;46424;-62
2023/03/27 03:25:18;;;;;;;;;1.00;1.00;;;;;10.88;51.45;101454.75;2100845;28;46421;-62
2023/03/27 03:26:18;;;;;;;;;2.00;1.00;;;;;10.88;51.31;101454.75;2086467;28;46556;-62
2023/03/27 03:27:19;;;;;;;;;1.00;1.00;;;;;10.87;51.18;101450.31;2078858;28;46178;-62
2023/03/27 03:28:20;;;;;;;;;2.00;1.50;;;;;10.89;51.37;101458.28;2090721;28;46401;-61
2023/03/27 03:29:20;;;;;;;;;1.00;1.00;;;;;10.88;51.28;101457.41;2096572;28;46402;-62
2023/03/27 03:30:20;;;;;;;;;1.00;1.00;;;;;10.90;51.19;101462.69;2105078;28;46680;-61
2023/03/27 03:31:21;;;;;;;;;3.00;2.00;;;;;10.88;51.29;101460.03;2104145;28;46458;-62
2023/03/27 03:32:21;;;;;;;;;3.00;2.00;;;;;10.89;51.35;101461.81;2104773;28;46330;-62
2023/03/27 03:33:22;;;;;;;;;1.33;0.67;;;;;10.89;51.44;101451.19;2105033;28;46271;-62
2023/03/27 03:34:22;;;;;;;;;1.00;1.00;;;;;10.90;51.11;101458.25;2105315;28;45148;-62
2023/03/27 03:35:23;;;;;;;;;1.33;1.33;;;;;10.90;51.42;101450.28;2104535;28;45544;-61
2023/03/27 03:36:24;;;;;;;;;2.75;0.00;;;;;10.89;51.46;101453.84;2105175;28;46471;-63
2023/03/27 03:37:27;;;;;;;;;2.00;1.00;;;;;10.88;51.35;101460.03;2105784;27;46791;-60
2023/03/27 03:38:28;;;;;;;;;2.50;2.50;;;;;10.87;51.45;101460.06;2085657;28;46284;-61
2023/03/27 03:39:29;;;;;;;;;1.00;1.00;;;;;10.85;51.37;101457.44;2087732;28;46660;-61
2023/03/27 03:40:30;;;;;;;;;1.00;1.00;;;;;10.84;51.62;101457.44;2104728;28;46465;-62
2023/03/27 03:41:30;;;;;;;;;2.00;2.00;;;;;10.83;51.36;101463.66;2104693;28;46562;-60
2023/03/27 03:42:31;;;;;;;;;1.00;1.00;;;;;10.83;51.40;101467.19;2104807;28;46472;-63
2023/03/27 03:43:31;;;;;;;;;0.67;0.67;;;;;10.82;51.43;101460.13;2105206;28;45178;-61
2023/03/27 03:44:33;;;;;;;;;1.00;1.00;;;;;10.82;51.61;101462.78;2104168;27;46455;-61
2023/03/27 03:45:33;;;;;;;;;3.50;2.25;;;;;10.81;51.81;101461.03;2102547;28;46554;-63
2023/03/27 03:46:34;;;;;;;;;1.33;1.33;;;;;10.82;51.45;101467.22;2096825;28;46146;-62
2023/03/27 03:47:34;;;;;;;;;2.00;1.00;;;;;10.81;51.64;101476.97;2098724;28;44990;-62
2023/03/27 03:48:35;;;;;;;;;2.00;1.00;;;;;10.83;51.84;101484.91;2096175;28;46976;-62
2023/03/27 03:49:36;;;;;;;;;0.67;0.67;;;;;10.82;51.61;101478.72;2103608;28;46896;-61
2023/03/27 03:50:36;;;;;;;;;3.00;2.00;;;;;10.83;51.79;101484.91;2104904;28;46899;-61
2023/03/27 03:51:36;;;;;;;;;1.00;1.00;;;;;10.83;51.71;101484.91;2105137;28;46189;-61
2023/03/27 03:52:37;;;;;;;;;2.67;1.67;;;;;10.83;51.62;101484.91;2104548;28;46556;-63
2023/03/27 03:53:38;;;;;;;;;2.67;2.67;;;;;10.84;51.72;101486.66;2104578;28;45687;-61
2023/03/27 03:54:39;;;;;;;;;1.00;0.00;;;;;10.84;51.54;101489.31;2097401;28;46335;-62
2023/03/27 03:55:39;;;;;;;;;3.60;2.00;;;;;10.85;51.74;101486.63;2088774;28;46763;-61
2023/03/27 03:56:40;;;;;;;;;3.00;2.00;;;;;10.86;51.49;101490.19;2095541;28;45991;-63
2023/03/27 03:57:45;;;;;;;;;4.25;3.00;;;;;10.85;51.75;101483.97;2095484;28;46582;-63
2023/03/27 03:58:46;;;;;;;;;1.50;1.25;;;;;10.86;51.49;101485.75;2096402;28;46494;-61
2023/03/27 03:59:47;;;;;;;;;2.33;1.33;;;;;10.86;51.60;101488.41;2104774;28;46608;-61
2023/03/27 04:00:47;;;;;;;;;1.25;1.25;;;;;10.85;51.48;101491.06;2106051;27;46409;-62
2023/03/27 04:01:48;;;;;;;;;2.00;1.00;;;;;10.86;51.50;101495.50;2104862;28;46314;-64
2023/03/27 04:02:52;;;;;;;;;2.50;2.50;;;;;10.85;51.48;101494.59;2103645;27;46804;-62
2023/03/27 04:03:52;;;;;;;;;3.00;3.00;;;;;10.84;51.40;101503.47;2109647;27;46454;-62
2023/03/27 04:05:03;;;;;;;;;2.67;0.00;;;;;10.85;51.63;101497.25;2103917;28;46222;-61
2023/03/27 04:06:04;;;;;;;;;2.50;1.25;;;;;10.84;51.41;101505.25;2104232;28;46517;-62
2023/03/27 04:07:05;;;;;;;;;4.00;2.00;;;;;10.84;51.95;101510.56;2105021;28;45867;-62
2023/03/27 04:08:06;;;;;;;;;0.75;0.75;;;;;10.85;51.59;101520.28;2104384;28;46632;-63
2023/03/27 04:09:06;;;;;;;;;1.00;1.00;;;;;10.84;51.37;101505.25;2101819;28;45638;-61
2023/03/27 04:10:07;;;;;;;;;3.00;1.67;;;;;10.84;51.67;101507.91;2098036;28;46485;-62
2023/03/27 04:11:08;;;;;;;;;3.00;1.67;;;;;10.85;51.39;101523.81;2104734;28;46421;-62
2023/03/27 04:12:08;;;;;;;;;1.00;1.00;;;;;10.85;51.75;101522.94;2104182;27;46375;-63
2023/03/27 04:13:09;;;;;;;;;1.00;1.00;;;;;10.85;51.52;101526.47;2109971;27;46454;-61
2023/03/27 04:14:09;;;;;;;;;3.00;2.00;;;;;10.85;51.48;101521.16;2097074;28;46431;-64
2023/03/27 04:15:10;;;;;;;;;2.33;1.00;;;;;10.85;51.55;101515.84;2099449;28;46300;-62
2023/03/27 04:16:10;;;;;;;;;0.00;0.00;;;;;10.85;51.51;101522.94;2095655;28;46388;-63
2023/03/27 04:17:10;;;;;;;;;0.00;0.00;;;;;10.84;51.70;101527.38;2095878;28;46251;-62
2023/03/27 04:18:13;;;;;;;;;3.00;3.00;;;;;10.86;51.67;101530.00;2104276;28;46287;-61
2023/03/27 04:19:17;;;;;;;;;4.00;1.40;;;;;10.86;51.96;101525.56;2095687;28;46704;-61
2023/03/27 04:20:17;;;;;;;;;1.25;1.00;;;;;10.87;51.77;101532.63;2095403;28;46299;-63
2023/03/27 04:21:17;;;;;;;;;2.67;1.67;;;;;10.89;51.67;101532.63;2104573;28;46487;-63
2023/03/27 04:22:18;;;;;;;;;3.33;2.00;;;;;10.88;51.70;101526.44;2103555;28;46323;-62
2023/03/27 04:23:18;;;;;;;;;2.00;2.00;;;;;10.91;51.91;101530.81;2104428;28;46435;-63
2023/03/27 04:24:19;;;;;;;;;1.00;1.00;;;;;10.93;51.46;101533.50;2104969;28;46282;-63
2023/03/27 04:25:22;;;;;;;;;1.00;1.00;;;;;10.92;51.54;101535.25;2104505;28;47604;-61
2023/03/27 04:26:26;;;;;;;;;1.00;1.00;;;;;10.93;51.73;101536.16;2104149;28;46876;-63
2023/03/27 04:27:29;;;;;;;;;2.00;2.00;;;;;10.91;51.45;101542.31;2112563;27;46467;-64
2023/03/27 04:28:33;;;;;;;;;0.20;0.20;;;;;10.92;51.56;101545.84;2100665;28;46147;-62
2023/03/27 04:29:33;;;;;;;;;1.00;1.00;;;;;10.91;51.60;101546.75;2096559;28;45842;-62
2023/03/27 04:30:35;;;;;;;;;1.00;0.67;;;;;10.90;51.78;101547.66;2112157;27;46847;-62
2023/03/27 04:31:37;;;;;;;;;2.00;2.00;;;;;10.89;51.76;101553.88;2110805;27;46541;-65
2023/03/27 04:32:39;;;;;;;;;2.00;2.00;;;;;10.87;51.79;101553.88;2113287;27;45658;-63
2023/03/27 04:33:45;;;;;;;;;0.50;0.50;;;;;10.87;51.60;101559.19;2111081;27;46139;-62
2023/03/27 04:34:47;;;;;;;;;0.50;0.50;;;;;10.87;51.68;101559.19;2110499;27;46332;-62
2023/03/27 04:35:49;;;;;;;;;1.50;1.00;;;;;10.88;51.61;101560.94;2112979;27;46731;-62
2023/03/27 04:36:50;;;;;;;;;0.75;0.75;;;;;10.88;51.63;101565.38;2111515;27;46806;-62
2023/03/27 04:37:51;;;;;;;;;1.25;1.00;;;;;10.87;51.56;101566.28;2099971;27;46465;-61
2023/03/27 04:38:52;;;;;;;;;2.00;1.00;;;;;10.86;51.66;101567.19;2095075;28;46847;-63
2023/03/27 04:39:52;;;;;;;;;1.33;1.33;;;;;10.86;51.63;101564.53;2099515;27;46438;-62
2023/03/27 04:40:53;;;;;;;;;1.33;1.33;;;;;10.86;51.73;101559.22;2112636;27;46529;-61
2023/03/27 04:41:53;;;;;;;;;2.00;2.00;;;;;10.85;51.85;101566.31;2103388;28;46330;-63
2023/03/27 04:42:54;;;;;;;;;2.75;2.75;;;;;10.85;51.93;101568.06;2103296;28;46063;-63
2023/03/27 04:43:55;;;;;;;;;1.25;1.25;;;;;10.85;51.69;101573.38;2107280;27;46838;-64
2023/03/27 04:44:56;;;;;;;;;3.00;1.50;;;;;10.84;51.57;101572.50;2111098;27;46263;-62
2023/03/27 04:45:56;;;;;;;;;2.25;1.50;;;;;10.83;51.59;101565.44;2112085;27;46435;-62
2023/03/27 04:47:00;;;;;;;;;1.00;1.00;;;;;10.84;51.67;101576.94;2113211;27;46218;-62
2023/03/27 04:48:00;;;;;;;;;2.75;2.75;;;;;10.83;51.75;101576.06;2100938;27;46357;-62
2023/03/27 04:49:01;;;;;;;;;3.67;1.33;;;;;10.83;51.85;101573.41;2099070;28;46510;-61
2023/03/27 04:50:01;;;;;;;;;1.67;1.00;;;;;10.83;51.66;101572.53;2105820;28;46444;-62
2023/03/27 04:51:02;;;;;;;;;1.25;1.00;;;;;10.82;51.72;101581.38;2102098;28;46094;-61
2023/03/27 04:52:03;;;;;;;;;1.67;1.33;;;;;10.82;51.77;101578.72;2097695;28;46294;-62
2023/03/27 04:53:04;;;;;;;;;3.00;2.00;;;;;10.82;51.87;101581.38;2088510;28;46756;-63
2023/03/27 04:54:04;;;;;;;;;1.67;1.67;;;;;10.82;51.61;101581.38;2088679;28;46474;-63
2023/03/27 04:55:06;;;;;;;;;1.50;1.50;;;;;10.82;51.77;101589.34;2097267;28;46221;-62
2023/03/27 04:56:08;;;;;;;;;1.00;0.50;;;;;10.81;51.77;101588.47;2098005;28;46562;-62
2023/03/27 04:57:08;;;;;;;;;13.60;12.00;;;;;10.82;51.69;101589.34;2098339;28;46606;-63
2023/03/27 04:58:09;;;;;;;;;9.00;7.25;;;;;10.83;51.79;101588.47;2105782;28;46542;-62
2023/03/27 04:59:09;;;;;;;;;4.25;4.25;;;;;10.83;51.95;101593.78;2106355;27;45382;-62
2023/03/27 05:00:15;;;;;;;;;1.67;1.67;;;;;10.84;51.42;101590.22;2086352;28;46613;-62
2023/03/27 05:01:16;;;;;;;;;2.00;2.00;;;;;10.84;51.66;101595.53;2089242;28;46572;-61
2023/03/27 05:02:16;;;;;;;;;2.00;2.00;;;;;10.83;51.64;101592.00;2105463;28;46727;-61
2023/03/27 05:03:17;;;;;;;;;2.00;1.00;;;;;10.85;51.74;101587.53;2112645;27;46628;-62
2023/03/27 05:04:18;;;;;;;;;1.00;1.00;;;;;10.85;51.42;101592.84;2099090;28;46326;-62